sensor_id;sensor_type;location;lat;lon;timestamp;temperature;humidity
18611;DHT22;9435;52.122;5.502;2024-01-27T00:00:31;3.00;99.90
18611;DHT22;9435;52.122;5.502;2024-01-27T00:02:58;3.00;99.90
18611;DHT22;9435;52.122;5.502;2024-01-27T00:05:25;3.00;99.90
18611;DHT22;9435;52.122;5.502;2024-01-27T00:07:52;3.00;99.90
18611;DHT22;9435;52.122;5.502;2024-01-27T00:10:19;3.00;99.90
18611;DHT22;9435;52.122;5.502;2024-01-27T00:12:48;3.00;99.90
18611;DHT22;9435;52.122;5.502;2024-01-27T00:15:15;3.00;99.90
18611;DHT22;9435;52.122;5.502;2024-01-27T00:17:42;3.00;99.90
18611;DHT22;9435;52.122;5.502;2024-01-27T00:20:10;3.00;99.90
18611;DHT22;9435;52.122;5.502;2024-01-27T00:22:37;3.00;99.90
18611;DHT22;9435;52.122;5.502;2024-01-27T00:25:05;3.00;99.90
18611;DHT22;9435;52.122;5.502;2024-01-27T00:27:32;2.90;99.90
18611;DHT22;9435;52.122;5.502;2024-01-27T00:30:01;2.90;99.90
18611;DHT22;9435;52.122;5.502;2024-01-27T00:32:28;2.90;99.90
18611;DHT22;9435;52.122;5.502;2024-01-27T00:34:56;2.90;99.90
18611;DHT22;9435;52.122;5.502;2024-01-27T00:37:23;2.90;99.90
18611;DHT22;9435;52.122;5.502;2024-01-27T00:39:51;2.90;99.90
18611;DHT22;9435;52.122;5.502;2024-01-27T00:42:18;2.90;99.90
18611;DHT22;9435;52.122;5.502;2024-01-27T00:44:49;2.90;99.90
18611;DHT22;9435;52.122;5.502;2024-01-27T00:47:18;2.90;99.90
18611;DHT22;9435;52.122;5.502;2024-01-27T00:49:45;2.90;99.90
18611;DHT22;9435;52.122;5.502;2024-01-27T00:52:12;2.90;99.90
18611;DHT22;9435;52.122;5.502;2024-01-27T00:54:39;2.80;99.90
18611;DHT22;9435;52.122;5.502;2024-01-27T00:57:06;2.80;99.90
18611;DHT22;9435;52.122;5.502;2024-01-27T00:59:34;2.70;99.90
18611;DHT22;9435;52.122;5.502;2024-01-27T01:02:01;2.80;99.90
18611;DHT22;9435;52.122;5.502;2024-01-27T01:04:29;2.70;99.90
18611;DHT22;9435;52.122;5.502;2024-01-27T01:06:56;2.70;99.90
18611;DHT22;9435;52.122;5.502;2024-01-27T01:09:23;2.70;99.90
18611;DHT22;9435;52.122;5.502;2024-01-27T01:11:51;2.70;99.90
18611;DHT22;9435;52.122;5.502;2024-01-27T01:14:18;2.70;99.90
18611;DHT22;9435;52.122;5.502;2024-01-27T01:16:45;2.70;99.90
18611;DHT22;9435;52.122;5.502;2024-01-27T01:19:12;2.70;99.90
18611;DHT22;9435;52.122;5.502;2024-01-27T01:21:41;2.70;99.90
18611;DHT22;9435;52.122;5.502;2024-01-27T01:24:09;2.60;99.90
18611;DHT22;9435;52.122;5.502;2024-01-27T01:26:36;2.70;99.90
18611;DHT22;9435;52.122;5.502;2024-01-27T01:29:03;2.70;99.90
18611;DHT22;9435;52.122;5.502;2024-01-27T01:31:30;2.70;99.90
18611;DHT22;9435;52.122;5.502;2024-01-27T01:33:57;2.60;99.90
18611;DHT22;9435;52.122;5.502;2024-01-27T01:36:24;2.70;99.90
18611;DHT22;9435;52.122;5.502;2024-01-27T01:38:53;2.70;99.90
18611;DHT22;9435;52.122;5.502;2024-01-27T01:41:20;2.70;99.90
18611;DHT22;9435;52.122;5.502;2024-01-27T01:43:47;2.70;99.90
18611;DHT22;9435;52.122;5.502;2024-01-27T01:46:14;2.70;99.90
18611;DHT22;9435;52.122;5.502;2024-01-27T01:48:41;2.70;99.90
18611;DHT22;9435;52.122;5.502;2024-01-27T01:51:09;2.60;99.90
18611;DHT22;9435;52.122;5.502;2024-01-27T01:53:36;2.60;99.90
18611;DHT22;9435;52.122;5.502;2024-01-27T01:56:06;2.60;99.90
18611;DHT22;9435;52.122;5.502;2024-01-27T01:58:34;2.50;99.90
18611;DHT22;9435;52.122;5.502;2024-01-27T02:01:01;2.50;99.90
18611;DHT22;9435;52.122;5.502;2024-01-27T02:03:28;2.50;99.90
18611;DHT22;9435;52.122;5.502;2024-01-27T02:05:55;2.40;99.90
18611;DHT22;9435;52.122;5.502;2024-01-27T02:08:23;2.40;99.90
18611;DHT22;9435;52.122;5.502;2024-01-27T02:10:50;2.40;99.90
18611;DHT22;9435;52.122;5.502;2024-01-27T02:13:19;2.50;99.90
18611;DHT22;9435;52.122;5.502;2024-01-27T02:15:47;2.50;99.90
18611;DHT22;9435;52.122;5.502;2024-01-27T02:18:14;2.50;99.90
18611;DHT22;9435;52.122;5.502;2024-01-27T02:20:42;2.50;99.90
18611;DHT22;9435;52.122;5.502;2024-01-27T02:23:09;2.40;99.90
18611;DHT22;9435;52.122;5.502;2024-01-27T02:25:38;2.50;99.90
18611;DHT22;9435;52.122;5.502;2024-01-27T02:28:05;2.40;99.90
18611;DHT22;9435;52.122;5.502;2024-01-27T02:30:33;2.50;99.90
18611;DHT22;9435;52.122;5.502;2024-01-27T02:33:00;2.40;99.90
18611;DHT22;9435;52.122;5.502;2024-01-27T02:35:27;2.40;99.90
18611;DHT22;9435;52.122;5.502;2024-01-27T02:37:54;2.40;99.90
18611;DHT22;9435;52.122;5.502;2024-01-27T02:40:21;2.40;99.90
18611;DHT22;9435;52.122;5.502;2024-01-27T02:42:50;2.40;99.90
18611;DHT22;9435;52.122;5.502;2024-01-27T02:45:17;2.40;99.90
18611;DHT22;9435;52.122;5.502;2024-01-27T02:47:45;2.40;99.90
18611;DHT22;9435;52.122;5.502;2024-01-27T02:50:12;2.30;99.90
18611;DHT22;9435;52.122;5.502;2024-01-27T02:52:39;2.40;99.90
18611;DHT22;9435;52.122;5.502;2024-01-27T02:55:07;2.40;99.90
18611;DHT22;9435;52.122;5.502;2024-01-27T02:57:34;2.30;99.90
18611;DHT22;9435;52.122;5.502;2024-01-27T03:00:03;2.30;99.90
18611;DHT22;9435;52.122;5.502;2024-01-27T03:02:31;2.30;99.90
18611;DHT22;9435;52.122;5.502;2024-01-27T03:04:58;2.30;99.90
18611;DHT22;9435;52.122;5.502;2024-01-27T03:07:25;2.30;99.90
18611;DHT22;9435;52.122;5.502;2024-01-27T03:09:52;2.30;99.90
18611;DHT22;9435;52.122;5.502;2024-01-27T03:12:19;2.40;99.90
18611;DHT22;9435;52.122;5.502;2024-01-27T03:14:48;2.40;99.90
18611;DHT22;9435;52.122;5.502;2024-01-27T03:17:18;2.40;99.90
18611;DHT22;9435;52.122;5.502;2024-01-27T03:19:45;2.40;99.90
18611;DHT22;9435;52.122;5.502;2024-01-27T03:22:12;2.40;99.90
18611;DHT22;9435;52.122;5.502;2024-01-27T03:24:39;2.40;99.90
18611;DHT22;9435;52.122;5.502;2024-01-27T03:27:07;2.40;99.90
18611;DHT22;9435;52.122;5.502;2024-01-27T03:29:34;2.50;99.90
18611;DHT22;9435;52.122;5.502;2024-01-27T03:32:01;2.40;99.90
18611;DHT22;9435;52.122;5.502;2024-01-27T03:34:29;2.50;99.90
18611;DHT22;9435;52.122;5.502;2024-01-27T03:36:57;2.40;99.90
18611;DHT22;9435;52.122;5.502;2024-01-27T03:39:24;2.50;99.90
18611;DHT22;9435;52.122;5.502;2024-01-27T03:41:51;2.50;99.90
18611;DHT22;9435;52.122;5.502;2024-01-27T03:44:18;2.40;99.90
18611;DHT22;9435;52.122;5.502;2024-01-27T03:46:45;2.50;99.90
18611;DHT22;9435;52.122;5.502;2024-01-27T03:49:14;2.50;99.90
18611;DHT22;9435;52.122;5.502;2024-01-27T03:51:42;2.40;99.90
18611;DHT22;9435;52.122;5.502;2024-01-27T03:54:09;2.40;99.90
18611;DHT22;9435;52.122;5.502;2024-01-27T03:56:36;2.40;99.90
18611;DHT22;9435;52.122;5.502;2024-01-27T03:59:03;2.40;99.90
18611;DHT22;9435;52.122;5.502;2024-01-27T04:01:32;2.40;99.90
18611;DHT22;9435;52.122;5.502;2024-01-27T04:03:59;2.40;99.90
18611;DHT22;9435;52.122;5.502;2024-01-27T04:06:26;2.40;99.90
18611;DHT22;9435;52.122;5.502;2024-01-27T04:08:54;2.40;99.90
18611;DHT22;9435;52.122;5.502;2024-01-27T04:11:22;2.40;99.90
18611;DHT22;9435;52.122;5.502;2024-01-27T04:13:49;2.40;99.90
18611;DHT22;9435;52.122;5.502;2024-01-27T04:16:17;2.40;99.90
18611;DHT22;9435;52.122;5.502;2024-01-27T04:18:44;2.40;99.90
18611;DHT22;9435;52.122;5.502;2024-01-27T04:21:11;2.40;99.90
18611;DHT22;9435;52.122;5.502;2024-01-27T04:23:38;2.40;99.90
18611;DHT22;9435;52.122;5.502;2024-01-27T04:26:07;2.40;99.90
18611;DHT22;9435;52.122;5.502;2024-01-27T04:28:35;2.40;99.90
18611;DHT22;9435;52.122;5.502;2024-01-27T04:31:02;2.40;99.90
18611;DHT22;9435;52.122;5.502;2024-01-27T04:33:30;2.40;99.90
18611;DHT22;9435;52.122;5.502;2024-01-27T04:35:57;2.40;99.90
18611;DHT22;9435;52.122;5.502;2024-01-27T04:38:24;2.40;99.90
18611;DHT22;9435;52.122;5.502;2024-01-27T04:40:51;2.40;99.90
18611;DHT22;9435;52.122;5.502;2024-01-27T04:43:20;2.30;99.90
18611;DHT22;9435;52.122;5.502;2024-01-27T04:45:47;2.30;99.90
18611;DHT22;9435;52.122;5.502;2024-01-27T04:48:15;2.20;99.90
18611;DHT22;9435;52.122;5.502;2024-01-27T04:50:43;2.20;99.90
18611;DHT22;9435;52.122;5.502;2024-01-27T04:53:10;2.20;99.90
18611;DHT22;9435;52.122;5.502;2024-01-27T04:55:37;2.20;99.90
18611;DHT22;9435;52.122;5.502;2024-01-27T04:58:22;2.20;99.90
18611;DHT22;9435;52.122;5.502;2024-01-27T05:00:49;2.20;99.90
18611;DHT22;9435;52.122;5.502;2024-01-27T05:03:16;2.20;99.90
18611;DHT22;9435;52.122;5.502;2024-01-27T05:05:43;2.20;99.90
18611;DHT22;9435;52.122;5.502;2024-01-27T05:08:11;2.20;99.90
18611;DHT22;9435;52.122;5.502;2024-01-27T05:10:38;2.20;99.90
18611;DHT22;9435;52.122;5.502;2024-01-27T05:13:05;2.20;99.90
18611;DHT22;9435;52.122;5.502;2024-01-27T05:15:34;2.20;99.90
18611;DHT22;9435;52.122;5.502;2024-01-27T05:18:01;2.20;99.90
18611;DHT22;9435;52.122;5.502;2024-01-27T05:20:28;2.20;99.90
18611;DHT22;9435;52.122;5.502;2024-01-27T05:22:55;2.20;99.90
18611;DHT22;9435;52.122;5.502;2024-01-27T05:25:22;2.20;99.90
18611;DHT22;9435;52.122;5.502;2024-01-27T05:27:49;2.10;99.90
18611;DHT22;9435;52.122;5.502;2024-01-27T05:30:17;2.10;99.90
18611;DHT22;9435;52.122;5.502;2024-01-27T05:32:46;2.10;99.90
18611;DHT22;9435;52.122;5.502;2024-01-27T05:35:13;2.10;99.90
18611;DHT22;9435;52.122;5.502;2024-01-27T05:37:40;2.10;99.90
18611;DHT22;9435;52.122;5.502;2024-01-27T05:40:08;2.10;99.90
18611;DHT22;9435;52.122;5.502;2024-01-27T05:42:36;2.10;99.90
18611;DHT22;9435;52.122;5.502;2024-01-27T05:45:07;2.10;99.90
18611;DHT22;9435;52.122;5.502;2024-01-27T05:47:35;2.00;99.90
18611;DHT22;9435;52.122;5.502;2024-01-27T05:50:04;2.00;99.90
18611;DHT22;9435;52.122;5.502;2024-01-27T05:52:33;2.00;99.90
18611;DHT22;9435;52.122;5.502;2024-01-27T05:55:01;2.10;99.90
18611;DHT22;9435;52.122;5.502;2024-01-27T05:57:28;2.00;99.90
18611;DHT22;9435;52.122;5.502;2024-01-27T05:59:55;2.10;99.90
18611;DHT22;9435;52.122;5.502;2024-01-27T06:02:22;2.10;99.90
18611;DHT22;9435;52.122;5.502;2024-01-27T06:04:49;2.10;99.90
18611;DHT22;9435;52.122;5.502;2024-01-27T06:07:18;2.10;99.90
18611;DHT22;9435;52.122;5.502;2024-01-27T06:09:45;2.10;99.90
18611;DHT22;9435;52.122;5.502;2024-01-27T06:12:12;2.10;99.90
18611;DHT22;9435;52.122;5.502;2024-01-27T06:14:41;2.00;99.90
18611;DHT22;9435;52.122;5.502;2024-01-27T06:17:08;2.10;99.90
18611;DHT22;9435;52.122;5.502;2024-01-27T06:19:35;2.00;99.90
18611;DHT22;9435;52.122;5.502;2024-01-27T06:22:02;2.00;99.90
18611;DHT22;9435;52.122;5.502;2024-01-27T06:24:30;1.90;99.90
18611;DHT22;9435;52.122;5.502;2024-01-27T06:26:57;1.90;99.90
18611;DHT22;9435;52.122;5.502;2024-01-27T06:29:25;1.80;99.90
18611;DHT22;9435;52.122;5.502;2024-01-27T06:31:52;1.80;99.90
18611;DHT22;9435;52.122;5.502;2024-01-27T06:34:20;1.80;99.90
18611;DHT22;9435;52.122;5.502;2024-01-27T06:36:47;1.90;99.90
18611;DHT22;9435;52.122;5.502;2024-01-27T06:39:14;1.90;99.90
18611;DHT22;9435;52.122;5.502;2024-01-27T06:41:42;1.90;99.90
18611;DHT22;9435;52.122;5.502;2024-01-27T06:44:10;2.00;99.90
18611;DHT22;9435;52.122;5.502;2024-01-27T06:46:37;1.90;99.90
18611;DHT22;9435;52.122;5.502;2024-01-27T06:49:04;2.00;99.90
18611;DHT22;9435;52.122;5.502;2024-01-27T06:51:31;2.00;99.90
18611;DHT22;9435;52.122;5.502;2024-01-27T06:53:58;2.00;99.90
18611;DHT22;9435;52.122;5.502;2024-01-27T06:56:25;2.00;99.90
18611;DHT22;9435;52.122;5.502;2024-01-27T06:58:54;1.90;99.90
18611;DHT22;9435;52.122;5.502;2024-01-27T07:01:21;1.90;99.90
18611;DHT22;9435;52.122;5.502;2024-01-27T07:03:49;1.90;99.90
18611;DHT22;9435;52.122;5.502;2024-01-27T07:06:16;1.90;99.90
18611;DHT22;9435;52.122;5.502;2024-01-27T07:08:43;1.90;99.90
18611;DHT22;9435;52.122;5.502;2024-01-27T07:11:10;1.90;99.90
18611;DHT22;9435;52.122;5.502;2024-01-27T07:13:38;1.80;99.90
18611;DHT22;9435;52.122;5.502;2024-01-27T07:16:06;1.90;99.90
18611;DHT22;9435;52.122;5.502;2024-01-27T07:18:33;1.90;99.90
18611;DHT22;9435;52.122;5.502;2024-01-27T07:21:01;1.90;99.90
18611;DHT22;9435;52.122;5.502;2024-01-27T07:23:28;1.90;99.90
18611;DHT22;9435;52.122;5.502;2024-01-27T07:25:55;2.00;99.90
18611;DHT22;9435;52.122;5.502;2024-01-27T07:28:22;2.00;99.90
18611;DHT22;9435;52.122;5.502;2024-01-27T07:30:50;2.00;99.90
18611;DHT22;9435;52.122;5.502;2024-01-27T07:33:19;2.00;99.90
18611;DHT22;9435;52.122;5.502;2024-01-27T07:35:46;2.00;99.90
18611;DHT22;9435;52.122;5.502;2024-01-27T07:38:13;1.90;99.90
18611;DHT22;9435;52.122;5.502;2024-01-27T07:40:40;1.80;99.90
18611;DHT22;9435;52.122;5.502;2024-01-27T07:43:07;1.80;99.90
18611;DHT22;9435;52.122;5.502;2024-01-27T07:45:34;1.80;99.90
18611;DHT22;9435;52.122;5.502;2024-01-27T07:48:02;1.80;99.90
18611;DHT22;9435;52.122;5.502;2024-01-27T07:50:31;1.90;99.90
18611;DHT22;9435;52.122;5.502;2024-01-27T07:52:58;1.90;99.90
18611;DHT22;9435;52.122;5.502;2024-01-27T07:55:25;2.00;99.90
18611;DHT22;9435;52.122;5.502;2024-01-27T07:57:52;1.90;99.90
18611;DHT22;9435;52.122;5.502;2024-01-27T08:00:19;1.90;99.90
18611;DHT22;9435;52.122;5.502;2024-01-27T08:02:47;1.90;99.90
18611;DHT22;9435;52.122;5.502;2024-01-27T08:05:14;2.00;99.90
18611;DHT22;9435;52.122;5.502;2024-01-27T08:07:43;2.00;99.90
18611;DHT22;9435;52.122;5.502;2024-01-27T08:10:10;2.00;99.90
18611;DHT22;9435;52.122;5.502;2024-01-27T08:12:38;2.10;99.90
18611;DHT22;9435;52.122;5.502;2024-01-27T08:15:09;2.10;99.90
18611;DHT22;9435;52.122;5.502;2024-01-27T08:17:36;2.10;99.90
18611;DHT22;9435;52.122;5.502;2024-01-27T08:20:05;2.10;99.90
18611;DHT22;9435;52.122;5.502;2024-01-27T08:22:32;2.20;99.90
18611;DHT22;9435;52.122;5.502;2024-01-27T08:25:02;2.20;99.90
18611;DHT22;9435;52.122;5.502;2024-01-27T08:27:29;2.30;99.90
18611;DHT22;9435;52.122;5.502;2024-01-27T08:29:56;2.30;99.90
18611;DHT22;9435;52.122;5.502;2024-01-27T08:32:24;2.30;99.90
18611;DHT22;9435;52.122;5.502;2024-01-27T08:34:51;2.40;99.90
18611;DHT22;9435;52.122;5.502;2024-01-27T08:37:19;2.50;99.90
18611;DHT22;9435;52.122;5.502;2024-01-27T08:39:46;2.50;99.90
18611;DHT22;9435;52.122;5.502;2024-01-27T08:42:15;2.60;99.90
18611;DHT22;9435;52.122;5.502;2024-01-27T08:44:42;2.60;99.90
18611;DHT22;9435;52.122;5.502;2024-01-27T08:47:10;2.70;99.90
18611;DHT22;9435;52.122;5.502;2024-01-27T08:49:37;2.70;99.90
18611;DHT22;9435;52.122;5.502;2024-01-27T08:52:05;2.80;99.90
18611;DHT22;9435;52.122;5.502;2024-01-27T08:54:32;3.00;99.90
18611;DHT22;9435;52.122;5.502;2024-01-27T08:56:59;3.00;99.90
18611;DHT22;9435;52.122;5.502;2024-01-27T08:59:28;3.10;99.90
18611;DHT22;9435;52.122;5.502;2024-01-27T09:01:55;3.20;99.90
18611;DHT22;9435;52.122;5.502;2024-01-27T09:04:22;3.30;99.90
18611;DHT22;9435;52.122;5.502;2024-01-27T09:06:49;3.40;99.90
18611;DHT22;9435;52.122;5.502;2024-01-27T09:09:16;3.40;99.90
18611;DHT22;9435;52.122;5.502;2024-01-27T09:11:44;3.40;99.90
18611;DHT22;9435;52.122;5.502;2024-01-27T09:14:11;3.50;99.90
18611;DHT22;9435;52.122;5.502;2024-01-27T09:16:40;3.50;99.90
18611;DHT22;9435;52.122;5.502;2024-01-27T09:19:07;3.50;99.90
18611;DHT22;9435;52.122;5.502;2024-01-27T09:21:35;3.50;99.90
18611;DHT22;9435;52.122;5.502;2024-01-27T09:24:02;3.50;99.90
18611;DHT22;9435;52.122;5.502;2024-01-27T09:26:30;3.50;99.90
18611;DHT22;9435;52.122;5.502;2024-01-27T09:28:57;3.50;99.90
18611;DHT22;9435;52.122;5.502;2024-01-27T09:31:24;3.50;99.90
18611;DHT22;9435;52.122;5.502;2024-01-27T09:33:53;3.50;99.90
18611;DHT22;9435;52.122;5.502;2024-01-27T09:36:21;3.50;99.90
18611;DHT22;9435;52.122;5.502;2024-01-27T09:38:49;3.60;99.90
18611;DHT22;9435;52.122;5.502;2024-01-27T09:41:16;3.60;99.90
18611;DHT22;9435;52.122;5.502;2024-01-27T09:43:45;3.70;99.90
18611;DHT22;9435;52.122;5.502;2024-01-27T09:46:13;3.70;99.90
18611;DHT22;9435;52.122;5.502;2024-01-27T09:48:40;3.80;99.90
18611;DHT22;9435;52.122;5.502;2024-01-27T09:51:09;3.80;99.90
18611;DHT22;9435;52.122;5.502;2024-01-27T09:53:37;3.90;99.90
18611;DHT22;9435;52.122;5.502;2024-01-27T09:56:04;3.90;99.90
18611;DHT22;9435;52.122;5.502;2024-01-27T09:58:33;4.00;99.90
18611;DHT22;9435;52.122;5.502;2024-01-27T10:01:01;4.10;99.90
18611;DHT22;9435;52.122;5.502;2024-01-27T10:03:28;4.10;99.90
18611;DHT22;9435;52.122;5.502;2024-01-27T10:05:57;4.20;99.90
18611;DHT22;9435;52.122;5.502;2024-01-27T10:08:25;4.20;99.90
18611;DHT22;9435;52.122;5.502;2024-01-27T10:10:54;4.30;99.90
18611;DHT22;9435;52.122;5.502;2024-01-27T10:13:22;4.30;99.90
18611;DHT22;9435;52.122;5.502;2024-01-27T10:16:01;4.40;99.90
18611;DHT22;9435;52.122;5.502;2024-01-27T10:18:29;4.50;99.90
18611;DHT22;9435;52.122;5.502;2024-01-27T10:20:56;4.50;99.90
18611;DHT22;9435;52.122;5.502;2024-01-27T10:23:25;4.60;99.90
18611;DHT22;9435;52.122;5.502;2024-01-27T10:25:52;4.60;99.90
18611;DHT22;9435;52.122;5.502;2024-01-27T10:28:19;4.70;99.90
18611;DHT22;9435;52.122;5.502;2024-01-27T10:30:48;4.70;99.90
18611;DHT22;9435;52.122;5.502;2024-01-27T10:33:15;4.80;99.90
18611;DHT22;9435;52.122;5.502;2024-01-27T10:35:43;4.80;99.90
18611;DHT22;9435;52.122;5.502;2024-01-27T10:38:10;4.80;99.90
18611;DHT22;9435;52.122;5.502;2024-01-27T10:40:38;4.90;99.90
18611;DHT22;9435;52.122;5.502;2024-01-27T10:43:07;4.90;99.90
18611;DHT22;9435;52.122;5.502;2024-01-27T10:45:36;5.00;99.90
18611;DHT22;9435;52.122;5.502;2024-01-27T10:48:05;5.00;99.90
18611;DHT22;9435;52.122;5.502;2024-01-27T10:50:35;5.10;99.90
18611;DHT22;9435;52.122;5.502;2024-01-27T10:53:04;5.20;99.90
18611;DHT22;9435;52.122;5.502;2024-01-27T10:55:33;5.20;99.90
18611;DHT22;9435;52.122;5.502;2024-01-27T10:58:03;5.30;99.90
18611;DHT22;9435;52.122;5.502;2024-01-27T11:00:30;5.40;99.90
18611;DHT22;9435;52.122;5.502;2024-01-27T11:02:59;5.40;99.90
18611;DHT22;9435;52.122;5.502;2024-01-27T11:05:28;5.50;99.90
18611;DHT22;9435;52.122;5.502;2024-01-27T11:07:56;5.50;99.90
18611;DHT22;9435;52.122;5.502;2024-01-27T11:10:24;5.60;99.90
18611;DHT22;9435;52.122;5.502;2024-01-27T11:12:52;5.70;99.90
18611;DHT22;9435;52.122;5.502;2024-01-27T11:15:22;5.80;99.90
18611;DHT22;9435;52.122;5.502;2024-01-27T11:17:49;5.80;99.90
18611;DHT22;9435;52.122;5.502;2024-01-27T11:20:16;5.80;99.90
18611;DHT22;9435;52.122;5.502;2024-01-27T11:22:43;5.90;99.90
18611;DHT22;9435;52.122;5.502;2024-01-27T11:25:16;5.90;99.90
18611;DHT22;9435;52.122;5.502;2024-01-27T11:27:45;6.00;99.90
18611;DHT22;9435;52.122;5.502;2024-01-27T11:30:27;6.10;99.90
18611;DHT22;9435;52.122;5.502;2024-01-27T11:32:55;6.20;99.90
18611;DHT22;9435;52.122;5.502;2024-01-27T11:35:22;6.20;99.90
18611;DHT22;9435;52.122;5.502;2024-01-27T11:37:49;6.30;99.90
18611;DHT22;9435;52.122;5.502;2024-01-27T11:40:17;6.30;99.90
18611;DHT22;9435;52.122;5.502;2024-01-27T11:42:45;6.40;99.90
18611;DHT22;9435;52.122;5.502;2024-01-27T11:45:20;6.40;99.90
18611;DHT22;9435;52.122;5.502;2024-01-27T11:47:48;6.50;99.90
18611;DHT22;9435;52.122;5.502;2024-01-27T11:50:17;6.50;99.90
18611;DHT22;9435;52.122;5.502;2024-01-27T11:52:44;6.50;99.90
18611;DHT22;9435;52.122;5.502;2024-01-27T11:55:12;6.50;99.90
18611;DHT22;9435;52.122;5.502;2024-01-27T11:57:41;6.60;99.90
18611;DHT22;9435;52.122;5.502;2024-01-27T12:00:09;6.60;99.90
18611;DHT22;9435;52.122;5.502;2024-01-27T12:02:36;6.70;99.90
18611;DHT22;9435;52.122;5.502;2024-01-27T12:05:07;6.70;99.90
18611;DHT22;9435;52.122;5.502;2024-01-27T12:07:34;6.70;99.90
18611;DHT22;9435;52.122;5.502;2024-01-27T12:10:02;6.80;99.90
18611;DHT22;9435;52.122;5.502;2024-01-27T12:12:29;6.80;99.90
18611;DHT22;9435;52.122;5.502;2024-01-27T12:14:56;6.90;99.90
18611;DHT22;9435;52.122;5.502;2024-01-27T12:17:25;7.00;99.90
18611;DHT22;9435;52.122;5.502;2024-01-27T12:19:52;7.10;99.90
18611;DHT22;9435;52.122;5.502;2024-01-27T12:22:25;7.10;99.90
18611;DHT22;9435;52.122;5.502;2024-01-27T12:24:52;7.10;99.90
18611;DHT22;9435;52.122;5.502;2024-01-27T12:27:21;7.10;99.90
18611;DHT22;9435;52.122;5.502;2024-01-27T12:29:48;7.00;99.90
18611;DHT22;9435;52.122;5.502;2024-01-27T12:32:17;7.10;99.90
18611;DHT22;9435;52.122;5.502;2024-01-27T12:34:44;7.10;99.90
18611;DHT22;9435;52.122;5.502;2024-01-27T12:37:13;7.10;99.90
18611;DHT22;9435;52.122;5.502;2024-01-27T12:39:43;7.20;99.90
18611;DHT22;9435;52.122;5.502;2024-01-27T12:42:10;7.20;99.90
18611;DHT22;9435;52.122;5.502;2024-01-27T12:44:38;7.20;99.90
18611;DHT22;9435;52.122;5.502;2024-01-27T12:47:06;7.20;99.90
18611;DHT22;9435;52.122;5.502;2024-01-27T12:49:34;7.20;99.90
18611;DHT22;9435;52.122;5.502;2024-01-27T12:52:01;7.20;99.90
18611;DHT22;9435;52.122;5.502;2024-01-27T12:54:28;7.30;99.90
18611;DHT22;9435;52.122;5.502;2024-01-27T12:56:57;7.20;99.90
18611;DHT22;9435;52.122;5.502;2024-01-27T12:59:26;7.30;99.90
18611;DHT22;9435;52.122;5.502;2024-01-27T13:01:54;7.30;99.90
18611;DHT22;9435;52.122;5.502;2024-01-27T13:04:22;7.30;99.90
18611;DHT22;9435;52.122;5.502;2024-01-27T13:06:49;7.30;99.90
18611;DHT22;9435;52.122;5.502;2024-01-27T13:09:16;7.30;99.90
18611;DHT22;9435;52.122;5.502;2024-01-27T13:11:43;7.30;99.90
18611;DHT22;9435;52.122;5.502;2024-01-27T13:14:12;7.30;99.90
18611;DHT22;9435;52.122;5.502;2024-01-27T13:16:40;7.30;99.90
18611;DHT22;9435;52.122;5.502;2024-01-27T13:19:07;7.30;99.90
18611;DHT22;9435;52.122;5.502;2024-01-27T13:21:34;7.30;99.90
18611;DHT22;9435;52.122;5.502;2024-01-27T13:24:01;7.30;99.90
18611;DHT22;9435;52.122;5.502;2024-01-27T13:26:28;7.20;99.90
18611;DHT22;9435;52.122;5.502;2024-01-27T13:28:57;7.20;99.90
18611;DHT22;9435;52.122;5.502;2024-01-27T13:31:26;7.20;99.90
18611;DHT22;9435;52.122;5.502;2024-01-27T13:33:53;7.20;99.90
18611;DHT22;9435;52.122;5.502;2024-01-27T13:36:20;7.20;99.90
18611;DHT22;9435;52.122;5.502;2024-01-27T13:38:47;7.20;99.90
18611;DHT22;9435;52.122;5.502;2024-01-27T13:41:14;7.20;99.90
18611;DHT22;9435;52.122;5.502;2024-01-27T13:43:41;7.20;99.90
18611;DHT22;9435;52.122;5.502;2024-01-27T13:46:08;7.10;99.90
18611;DHT22;9435;52.122;5.502;2024-01-27T13:48:37;7.10;99.90
18611;DHT22;9435;52.122;5.502;2024-01-27T13:51:05;7.10;99.90
18611;DHT22;9435;52.122;5.502;2024-01-27T13:53:33;7.10;99.90
18611;DHT22;9435;52.122;5.502;2024-01-27T13:56:00;7.10;99.90
18611;DHT22;9435;52.122;5.502;2024-01-27T13:58:27;7.10;99.90
18611;DHT22;9435;52.122;5.502;2024-01-27T14:00:54;7.10;99.90
18611;DHT22;9435;52.122;5.502;2024-01-27T14:03:21;7.20;99.90
18611;DHT22;9435;52.122;5.502;2024-01-27T14:05:50;7.20;99.90
18611;DHT22;9435;52.122;5.502;2024-01-27T14:08:17;7.20;99.90
18611;DHT22;9435;52.122;5.502;2024-01-27T14:10:45;7.20;99.90
18611;DHT22;9435;52.122;5.502;2024-01-27T14:13:14;7.20;99.90
18611;DHT22;9435;52.122;5.502;2024-01-27T14:15:41;7.20;99.90
18611;DHT22;9435;52.122;5.502;2024-01-27T14:18:08;7.20;99.90
18611;DHT22;9435;52.122;5.502;2024-01-27T14:20:39;7.20;99.90
18611;DHT22;9435;52.122;5.502;2024-01-27T14:23:08;7.10;99.90
18611;DHT22;9435;52.122;5.502;2024-01-27T14:25:35;7.10;99.90
18611;DHT22;9435;52.122;5.502;2024-01-27T14:28:04;7.10;99.90
18611;DHT22;9435;52.122;5.502;2024-01-27T14:30:32;7.00;99.90
18611;DHT22;9435;52.122;5.502;2024-01-27T14:33:00;7.10;99.90
18611;DHT22;9435;52.122;5.502;2024-01-27T14:35:27;7.00;99.90
18611;DHT22;9435;52.122;5.502;2024-01-27T14:37:54;7.00;99.90
18611;DHT22;9435;52.122;5.502;2024-01-27T14:40:24;7.00;99.90
18611;DHT22;9435;52.122;5.502;2024-01-27T14:42:52;7.00;99.90
18611;DHT22;9435;52.122;5.502;2024-01-27T14:45:19;7.00;99.90
18611;DHT22;9435;52.122;5.502;2024-01-27T14:47:46;6.90;99.90
18611;DHT22;9435;52.122;5.502;2024-01-27T14:50:13;6.90;99.90
18611;DHT22;9435;52.122;5.502;2024-01-27T14:52:40;6.90;99.90
18611;DHT22;9435;52.122;5.502;2024-01-27T14:55:08;6.80;99.90
18611;DHT22;9435;52.122;5.502;2024-01-27T14:57:38;6.80;99.90
18611;DHT22;9435;52.122;5.502;2024-01-27T15:00:07;6.80;99.90
18611;DHT22;9435;52.122;5.502;2024-01-27T15:02:34;6.70;99.90
18611;DHT22;9435;52.122;5.502;2024-01-27T15:05:02;6.70;99.90
18611;DHT22;9435;52.122;5.502;2024-01-27T15:07:29;6.70;99.90
18611;DHT22;9435;52.122;5.502;2024-01-27T15:09:56;6.60;99.90
18611;DHT22;9435;52.122;5.502;2024-01-27T15:12:23;6.60;99.90
18611;DHT22;9435;52.122;5.502;2024-01-27T15:14:52;6.60;99.90
18611;DHT22;9435;52.122;5.502;2024-01-27T15:17:19;6.50;99.90
18611;DHT22;9435;52.122;5.502;2024-01-27T15:19:47;6.50;99.90
18611;DHT22;9435;52.122;5.502;2024-01-27T15:22:14;6.50;99.90
18611;DHT22;9435;52.122;5.502;2024-01-27T15:24:41;6.50;99.90
18611;DHT22;9435;52.122;5.502;2024-01-27T15:27:09;6.40;99.90
18611;DHT22;9435;52.122;5.502;2024-01-27T15:29:36;6.40;99.90
18611;DHT22;9435;52.122;5.502;2024-01-27T15:32:05;6.40;99.90
18611;DHT22;9435;52.122;5.502;2024-01-27T15:34:33;6.30;99.90
18611;DHT22;9435;52.122;5.502;2024-01-27T15:37:01;6.30;99.90
18611;DHT22;9435;52.122;5.502;2024-01-27T15:39:30;6.30;99.90
18611;DHT22;9435;52.122;5.502;2024-01-27T15:41:57;6.20;99.90
18611;DHT22;9435;52.122;5.502;2024-01-27T15:44:27;6.20;99.90
18611;DHT22;9435;52.122;5.502;2024-01-27T15:46:54;6.10;99.90
18611;DHT22;9435;52.122;5.502;2024-01-27T15:49:23;6.10;99.90
18611;DHT22;9435;52.122;5.502;2024-01-27T15:51:50;6.10;99.90
18611;DHT22;9435;52.122;5.502;2024-01-27T15:54:19;6.00;99.90
18611;DHT22;9435;52.122;5.502;2024-01-27T15:56:46;5.90;99.90
18611;DHT22;9435;52.122;5.502;2024-01-27T15:59:14;5.90;99.90
18611;DHT22;9435;52.122;5.502;2024-01-27T16:01:41;5.80;99.90
18611;DHT22;9435;52.122;5.502;2024-01-27T16:04:08;5.80;99.90